Time;durP1;ratioP1;P1;durP2;ratioP2;P2;SDS_P1;SDS_P2;PMS_P1;PMS_P2;Temp;Humidity;BMP_temperature;BMP_pressure;BME280_temperature;BME280_humidity;BME280_pressure;Samples;Min_cycle;Max_cycle;Signal;HPM_P1;HPM_P2
2021/12/11 00:02:00;;;;;;;8.13;3.35;;;;;;;;;;4988397;28;20408;-91
2021/12/11 00:04:35;;;;;;;7.97;4.63;;;;;;;;;;4986726;28;20405;-90
2021/12/11 00:07:11;;;;;;;8.83;4.50;;;;;;;;;;4996477;28;20551;-91
2021/12/11 00:09:48;;;;;;;8.38;3.70;;;;;;;;;;4999422;28;20104;-90
2021/12/11 00:12:20;;;;;;;7.60;4.47;;;;;;;;;;4971885;28;20047;-91
2021/12/11 00:14:55;;;;;;;8.30;3.97;;;;;;;;;;4959780;28;20050;-90
2021/12/11 00:17:31;;;;;;;9.50;5.07;;;;;;;;;;4979997;28;20097;-91
2021/12/11 00:20:06;;;;;;;7.33;2.90;;;;;;;;;;4977370;28;20051;-90
2021/12/11 00:22:37;;;;;;;7.53;4.10;;;;;;;;;;4985886;28;20050;-90
2021/12/11 00:25:09;;;;;;;7.22;3.80;;;;;;;;;;4999379;28;20050;-88
2021/12/11 00:27:41;;;;;;;8.05;3.97;;;;;;;;;;4962652;28;20119;-89
2021/12/11 00:30:38;;;;;;;6.50;3.70;;;;;;;;;;4982656;28;20043;-89
2021/12/11 00:33:35;;;;;;;7.10;2.63;;;;;;;;;;4985701;28;20112;-88
2021/12/11 00:36:24;;;;;;;10.77;4.65;;;;;;;;;;4983668;28;20379;-90
2021/12/11 00:39:02;;;;;;;6.40;2.90;;;;;;;;;;4983031;28;20058;-89
2021/12/11 00:41:54;;;;;;;6.97;2.95;;;;;;;;;;4980524;28;20484;-89
2021/12/11 00:44:38;;;;;;;6.20;3.03;;;;;;;;;;4980236;28;20127;-90
2021/12/11 00:47:33;;;;;;;5.43;2.37;;;;;;;;;;4971051;28;20046;-90
2021/12/11 00:50:15;;;;;;;6.05;1.95;;;;;;;;;;4995943;28;20047;-90
2021/12/11 00:52:47;;;;;;;6.57;3.05;;;;;;;;;;4981123;28;20094;-90
2021/12/11 00:55:24;;;;;;;5.45;2.42;;;;;;;;;;4968817;28;20130;-90
2021/12/11 00:58:26;;;;;;;5.07;2.30;;;;;;;;;;4996718;28;20117;-90
2021/12/11 01:01:19;;;;;;;4.93;2.40;;;;;;;;;;4990947;28;20362;-90
2021/12/11 01:04:04;;;;;;;5.13;2.40;;;;;;;;;;4988907;28;20169;-90
2021/12/11 01:06:53;;;;;;;5.28;1.75;;;;;;;;;;4976209;28;20140;-89
2021/12/11 01:09:34;;;;;;;5.55;2.53;;;;;;;;;;4988429;28;20050;-90
2021/12/11 01:12:08;;;;;;;4.75;2.03;;;;;;;;;;5000093;28;20058;-90
2021/12/11 01:19:17;;;;;;;4.28;2.50;;;;;;;;;;4989143;28;20104;-89
2021/12/11 01:22:10;;;;;;;5.45;2.83;;;;;;;;;;4985843;28;20489;-89
2021/12/11 01:24:56;;;;;;;4.70;2.22;;;;;;;;;;4993179;28;20054;-90
2021/12/11 01:27:55;;;;;;;5.03;1.63;;;;;;;;;;4965774;28;20054;-90
2021/12/11 01:30:34;;;;;;;5.10;2.10;;;;;;;;;;4983848;28;20547;-89
2021/12/11 01:33:32;;;;;;;7.03;2.35;;;;;;;;;;4997427;28;20136;-90
2021/12/11 01:36:40;;;;;;;6.00;2.67;;;;;;;;;;4984670;28;20045;-90
2021/12/11 01:39:38;;;;;;;5.88;1.95;;;;;;;;;;4988180;28;20066;-89
2021/12/11 01:42:29;;;;;;;5.38;2.03;;;;;;;;;;4995965;28;20046;-89
2021/12/11 01:48:22;;;;;;;4.35;2.13;;;;;;;;;;5004871;28;20404;-90
2021/12/11 01:51:00;;;;;;;4.40;2.55;;;;;;;;;;4967744;28;20058;-90
2021/12/11 01:54:17;;;;;;;3.92;1.85;;;;;;;;;;4973606;28;20046;-90
2021/12/11 01:56:52;;;;;;;5.38;2.10;;;;;;;;;;5004664;28;20050;-91
2021/12/11 01:59:38;;;;;;;5.87;2.23;;;;;;;;;;4989567;28;20134;-90
2021/12/11 02:05:29;;;;;;;4.93;2.38;;;;;;;;;;4995114;28;20751;-90
2021/12/11 02:08:33;;;;;;;5.28;1.92;;;;;;;;;;5001314;28;20832;-90
2021/12/11 02:11:16;;;;;;;4.15;2.22;;;;;;;;;;4992541;28;20053;-89
2021/12/11 02:14:14;;;;;;;5.77;2.53;;;;;;;;;;4979587;28;20505;-90
2021/12/11 02:20:48;;;;;;;4.35;1.83;;;;;;;;;;4993648;28;20057;-91
2021/12/11 02:26:22;;;;;;;7.50;2.67;;;;;;;;;;4989736;28;20085;-90
2021/12/11 02:29:09;;;;;;;6.10;2.90;;;;;;;;;;4989398;28;20057;-90
2021/12/11 02:31:56;;;;;;;6.47;2.70;;;;;;;;;;4984038;28;20121;-89
2021/12/11 02:34:29;;;;;;;4.15;2.30;;;;;;;;;;4982884;28;20051;-90
2021/12/11 02:37:08;;;;;;;3.75;1.88;;;;;;;;;;4994878;28;20053;-90
2021/12/11 02:39:40;;;;;;;6.10;2.13;;;;;;;;;;4986548;28;20099;-90
2021/12/11 02:42:35;;;;;;;5.83;1.93;;;;;;;;;;4991033;28;20080;-90
2021/12/11 02:45:25;;;;;;;6.13;2.38;;;;;;;;;;5008362;28;20050;-90
2021/12/11 02:48:19;;;;;;;4.22;2.20;;;;;;;;;;4988901;28;20058;-90
2021/12/11 02:50:58;;;;;;;5.60;1.80;;;;;;;;;;4984272;28;20124;-91
2021/12/11 02:53:36;;;;;;;5.72;2.28;;;;;;;;;;4977626;28;20054;-90
2021/12/11 02:56:13;;;;;;;5.90;2.67;;;;;;;;;;4996481;28;20050;-90
2021/12/11 03:02:04;;;;;;;4.60;1.98;;;;;;;;;;4993335;28;20054;-90
2021/12/11 03:05:10;;;;;;;5.38;2.47;;;;;;;;;;4996343;28;20105;-89
2021/12/11 03:07:44;;;;;;;6.82;2.85;;;;;;;;;;4992952;28;20560;-90
2021/12/11 03:10:16;;;;;;;7.20;3.30;;;;;;;;;;5002157;28;20555;-90
2021/12/11 03:12:47;;;;;;;5.95;2.83;;;;;;;;;;4972160;28;20088;-90
2021/12/11 03:15:17;;;;;;;6.45;2.90;;;;;;;;;;4997532;28;20385;-90
2021/12/11 03:17:59;;;;;;;8.65;3.40;;;;;;;;;;4977370;28;20523;-90
2021/12/11 03:20:42;;;;;;;5.57;2.90;;;;;;;;;;4983438;28;20050;-90
2021/12/11 03:23:22;;;;;;;8.20;3.03;;;;;;;;;;4973126;28;20544;-91
2021/12/11 03:26:00;;;;;;;8.43;3.97;;;;;;;;;;4992267;28;20058;-91
2021/12/11 03:28:38;;;;;;;7.97;3.17;;;;;;;;;;4982274;28;20066;-91
2021/12/11 03:31:16;;;;;;;5.97;2.35;;;;;;;;;;4992057;28;20141;-90
2021/12/11 03:33:48;;;;;;;8.30;3.45;;;;;;;;;;4999487;28;20046;-91
2021/12/11 03:36:32;;;;;;;9.83;3.80;;;;;;;;;;5002645;28;20054;-91
2021/12/11 03:39:07;;;;;;;6.82;3.03;;;;;;;;;;4984165;28;20065;-90
2021/12/11 03:41:38;;;;;;;8.90;4.22;;;;;;;;;;4968570;28;20564;-90
2021/12/11 03:44:12;;;;;;;6.72;2.83;;;;;;;;;;4970408;28;20042;-90
2021/12/11 03:46:44;;;;;;;6.57;3.17;;;;;;;;;;4986599;28;20062;-91
2021/12/11 03:49:18;;;;;;;8.20;4.20;;;;;;;;;;4981681;28;20054;-91
2021/12/11 03:51:51;;;;;;;9.70;4.70;;;;;;;;;;4971835;28;20486;-91
2021/12/11 03:54:27;;;;;;;9.10;2.90;;;;;;;;;;4962868;28;20485;-90
2021/12/11 03:56:57;;;;;;;8.07;3.45;;;;;;;;;;4974507;28;20148;-90
2021/12/11 03:59:38;;;;;;;7.72;3.17;;;;;;;;;;5000977;28;20396;-91
2021/12/11 04:02:10;;;;;;;7.93;4.17;;;;;;;;;;4988376;28;20046;-91
2021/12/11 04:04:43;;;;;;;8.55;4.43;;;;;;;;;;5005224;28;20096;-89
2021/12/11 04:07:20;;;;;;;7.15;3.42;;;;;;;;;;5002429;28;20050;-90
2021/12/11 04:09:56;;;;;;;9.40;4.35;;;;;;;;;;5007502;28;20042;-90
2021/12/11 04:12:30;;;;;;;11.23;4.38;;;;;;;;;;4967320;28;20054;-91
2021/12/11 04:15:09;;;;;;;9.17;4.03;;;;;;;;;;4991632;28;20095;-91
2021/12/11 04:17:45;;;;;;;10.88;4.65;;;;;;;;;;5003070;28;20061;-90
2021/12/11 04:20:43;;;;;;;9.30;3.80;;;;;;;;;;4979616;28;20385;-90
2021/12/11 04:23:18;;;;;;;10.65;4.88;;;;;;;;;;5000314;28;20054;-90
2021/12/11 04:25:49;;;;;;;10.13;5.45;;;;;;;;;;4984697;28;20065;-91
2021/12/11 04:28:24;;;;;;;13.17;4.73;;;;;;;;;;5003962;28;20050;-90
2021/12/11 04:31:03;;;;;;;10.80;5.60;;;;;;;;;;4976334;28;20119;-90
2021/12/11 04:33:39;;;;;;;10.82;4.80;;;;;;;;;;4997252;28;20515;-91
2021/12/11 04:36:15;;;;;;;11.13;5.18;;;;;;;;;;4966914;28;20407;-90
2021/12/11 04:38:46;;;;;;;10.98;5.43;;;;;;;;;;4994526;28;20532;-90
2021/12/11 04:41:52;;;;;;;12.57;6.33;;;;;;;;;;4988640;28;20058;-91
2021/12/11 04:44:31;;;;;;;11.50;5.35;;;;;;;;;;4988083;28;20057;-91
2021/12/11 04:47:05;;;;;;;11.70;5.05;;;;;;;;;;4971174;28;20061;-91
2021/12/11 04:49:40;;;;;;;12.07;4.93;;;;;;;;;;5003535;28;20053;-91
2021/12/11 04:52:18;;;;;;;13.18;6.03;;;;;;;;;;4973749;28;20368;-91
2021/12/11 04:55:02;;;;;;;7.90;4.90;;;;;;;;;;4989596;28;20077;-91
2021/12/11 04:58:00;;;;;;;9.70;5.35;;;;;;;;;;4975905;28;20102;-90
2021/12/11 05:00:41;;;;;;;13.15;5.60;;;;;;;;;;4986598;28;20108;-90
2021/12/11 05:06:31;;;;;;;9.65;4.25;;;;;;;;;;4975307;28;20460;-90
2021/12/11 05:09:23;;;;;;;9.07;4.37;;;;;;;;;;5002162;28;20074;-90
2021/12/11 05:12:16;;;;;;;8.80;4.07;;;;;;;;;;5002093;28;20062;-90
2021/12/11 05:15:05;;;;;;;10.57;5.07;;;;;;;;;;4985510;28;20465;-90
2021/12/11 05:17:38;;;;;;;11.25;5.35;;;;;;;;;;4999174;28;20154;-90
2021/12/11 05:20:11;;;;;;;9.43;5.05;;;;;;;;;;4950191;28;20049;-89
2021/12/11 05:23:16;;;;;;;12.57;5.10;;;;;;;;;;4968648;28;20046;-90
2021/12/11 05:25:49;;;;;;;11.02;4.25;;;;;;;;;;4961159;28;20053;-90
2021/12/11 05:28:30;;;;;;;16.23;4.97;;;;;;;;;;4987206;28;20055;-90
2021/12/11 05:31:07;;;;;;;11.82;5.50;;;;;;;;;;4965119;28;20097;-90
2021/12/11 05:36:33;;;;;;;12.07;4.60;;;;;;;;;;4954885;28;20055;-90
2021/12/11 05:39:08;;;;;;;10.70;4.70;;;;;;;;;;4983769;28;20365;-90
2021/12/11 05:41:39;;;;;;;10.85;5.05;;;;;;;;;;4959228;28;20046;-90
2021/12/11 05:44:09;;;;;;;12.88;5.35;;;;;;;;;;4973516;28;20049;-90
2021/12/11 05:46:46;;;;;;;10.52;5.47;;;;;;;;;;4968731;28;20042;-90
2021/12/11 05:49:17;;;;;;;8.97;5.17;;;;;;;;;;4990300;28;20060;-90
2021/12/11 05:55:47;;;;;;;12.23;5.78;;;;;;;;;;4955867;28;20093;-89
2021/12/11 05:58:58;;;;;;;12.82;4.22;;;;;;;;;;4973786;28;20077;-89
2021/12/11 06:05:14;;;;;;;11.03;4.43;;;;;;;;;;4940193;28;20070;-88
2021/12/11 06:07:48;;;;;;;13.02;6.18;;;;;;;;;;4920271;29;20066;-91
2021/12/11 06:10:27;;;;;;;10.82;5.35;;;;;;;;;;4907712;29;20075;-90
2021/12/11 06:13:03;;;;;;;11.02;6.15;;;;;;;;;;4933345;29;20055;-89
2021/12/11 06:15:36;;;;;;;11.68;5.18;;;;;;;;;;4901924;29;20123;-89
2021/12/11 06:18:36;;;;;;;9.80;5.17;;;;;;;;;;4919342;29;20135;-92
2021/12/11 06:24:06;;;;;;;12.98;5.75;;;;;;;;;;4901799;29;20547;-91
2021/12/11 06:26:38;;;;;;;11.73;5.25;;;;;;;;;;4911690;29;20052;-91
2021/12/11 06:29:12;;;;;;;11.43;5.35;;;;;;;;;;4896882;29;20518;-90
2021/12/11 06:31:48;;;;;;;11.10;4.80;;;;;;;;;;4904952;29;20052;-90
2021/12/11 06:34:18;;;;;;;13.90;6.75;;;;;;;;;;4894283;29;20512;-91
2021/12/11 06:36:54;;;;;;;11.63;5.32;;;;;;;;;;4909129;29;20603;-89
2021/12/11 06:39:28;;;;;;;10.50;5.18;;;;;;;;;;4904722;29;20048;-90
2021/12/11 06:42:09;;;;;;;12.82;5.65;;;;;;;;;;4921899;28;20489;-92
2021/12/11 06:44:45;;;;;;;12.27;5.17;;;;;;;;;;4960828;28;20054;-90
2021/12/11 06:47:19;;;;;;;19.85;8.05;;;;;;;;;;4945593;28;20069;-88
2021/12/11 06:49:57;;;;;;;11.45;4.45;;;;;;;;;;4960077;28;20129;-90
2021/12/11 06:52:27;;;;;;;14.55;5.63;;;;;;;;;;4967854;28;20129;-91
2021/12/11 06:55:02;;;;;;;12.38;5.50;;;;;;;;;;4961785;28;20125;-90
2021/12/11 06:57:36;;;;;;;15.23;5.87;;;;;;;;;;4954532;28;20079;-87
2021/12/11 07:00:05;;;;;;;10.05;4.95;;;;;;;;;;4956235;28;20078;-88
2021/12/11 07:02:38;;;;;;;8.38;4.88;;;;;;;;;;4959664;28;20062;-90
2021/12/11 07:05:08;;;;;;;16.33;6.35;;;;;;;;;;4973903;28;20050;-89
2021/12/11 07:07:40;;;;;;;14.30;5.95;;;;;;;;;;4963009;28;20065;-87
2021/12/11 07:10:13;;;;;;;13.10;5.20;;;;;;;;;;4954853;28;20522;-89
2021/12/11 07:12:42;;;;;;;12.20;6.38;;;;;;;;;;4965458;28;20057;-90
2021/12/11 07:15:12;;;;;;;8.60;5.03;;;;;;;;;;4959005;28;20102;-85
2021/12/11 07:17:42;;;;;;;12.43;6.20;;;;;;;;;;4966700;28;20129;-87
2021/12/11 07:20:13;;;;;;;12.30;4.95;;;;;;;;;;4987947;28;20060;-84
2021/12/11 07:22:42;;;;;;;9.03;4.57;;;;;;;;;;4986041;28;20050;-85
2021/12/11 07:25:17;;;;;;;12.65;5.43;;;;;;;;;;4966430;28;20341;-85
2021/12/11 07:27:47;;;;;;;11.23;4.32;;;;;;;;;;4946230;28;20050;-87
2021/12/11 07:33:11;;;;;;;11.88;4.63;;;;;;;;;;5002760;28;20121;-89
2021/12/11 07:35:42;;;;;;;10.60;4.10;;;;;;;;;;4984905;28;20057;-87
2021/12/11 07:38:12;;;;;;;10.82;5.40;;;;;;;;;;4972319;28;20466;-88
2021/12/11 07:40:45;;;;;;;16.80;6.82;;;;;;;;;;4988113;28;20046;-87
2021/12/11 07:43:16;;;;;;;15.75;5.90;;;;;;;;;;4969071;28;20153;-86
2021/12/11 07:45:46;;;;;;;11.25;5.72;;;;;;;;;;4968203;28;20112;-87
2021/12/11 07:48:15;;;;;;;9.90;4.67;;;;;;;;;;4972387;28;20057;-88
2021/12/11 07:54:02;;;;;;;12.57;5.07;;;;;;;;;;4958290;28;20497;-89
2021/12/11 07:56:36;;;;;;;11.85;6.53;;;;;;;;;;4960402;28;20150;-89
2021/12/11 07:59:10;;;;;;;17.70;6.50;;;;;;;;;;4982016;28;20152;-88
2021/12/11 08:02:04;;;;;;;13.30;7.00;;;;;;;;;;4969234;28;20424;-88
2021/12/11 08:04:34;;;;;;;11.15;5.55;;;;;;;;;;4989990;28;20054;-87
2021/12/11 08:07:04;;;;;;;13.93;5.97;;;;;;;;;;4971703;28;20129;-87
2021/12/11 08:09:37;;;;;;;11.32;6.00;;;;;;;;;;4996536;28;20054;-86
2021/12/11 08:12:12;;;;;;;14.48;6.25;;;;;;;;;;4960499;28;20050;-87
2021/12/11 08:14:41;;;;;;;15.13;6.83;;;;;;;;;;4982486;28;20145;-87
2021/12/11 08:17:10;;;;;;;16.30;6.93;;;;;;;;;;4995808;28;20069;-87
2021/12/11 08:19:39;;;;;;;13.68;6.97;;;;;;;;;;4984520;28;20058;-87
2021/12/11 08:22:10;;;;;;;14.75;6.60;;;;;;;;;;4981185;28;20808;-84
2021/12/11 08:24:40;;;;;;;17.05;7.25;;;;;;;;;;4982889;28;20058;-86
2021/12/11 08:27:12;;;;;;;18.70;7.60;;;;;;;;;;4947550;28;20053;-86
2021/12/11 08:29:43;;;;;;;12.40;6.80;;;;;;;;;;4974489;28;20050;-85
2021/12/11 08:32:13;;;;;;;16.33;6.90;;;;;;;;;;4978024;28;20046;-87
2021/12/11 08:34:45;;;;;;;13.45;6.05;;;;;;;;;;4975190;28;20349;-85
2021/12/11 08:37:19;;;;;;;18.38;8.55;;;;;;;;;;4970815;28;20560;-87
2021/12/11 08:39:48;;;;;;;17.90;7.33;;;;;;;;;;4969306;28;20158;-86
2021/12/11 08:42:20;;;;;;;18.30;7.93;;;;;;;;;;4990473;28;20560;-88
2021/12/11 08:44:53;;;;;;;16.85;7.80;;;;;;;;;;4974058;28;20054;-86
2021/12/11 08:47:24;;;;;;;14.13;6.35;;;;;;;;;;4964530;28;20046;-85
2021/12/11 08:49:55;;;;;;;14.85;6.10;;;;;;;;;;4971500;28;20142;-86
2021/12/11 08:52:25;;;;;;;12.63;6.43;;;;;;;;;;4969769;28;20142;-86
2021/12/11 08:54:55;;;;;;;14.27;7.25;;;;;;;;;;4977060;28;20129;-85
2021/12/11 08:57:28;;;;;;;17.77;7.43;;;;;;;;;;4982251;28;20053;-87
2021/12/11 08:59:58;;;;;;;20.00;7.18;;;;;;;;;;4973661;28;20506;-86
2021/12/11 09:02:30;;;;;;;13.88;7.05;;;;;;;;;;4980690;28;20516;-87
2021/12/11 09:05:01;;;;;;;16.57;6.87;;;;;;;;;;4957192;28;20058;-85
2021/12/11 09:07:32;;;;;;;14.38;6.75;;;;;;;;;;4972858;28;20058;-86
2021/12/11 09:10:05;;;;;;;16.25;8.45;;;;;;;;;;4955884;28;20062;-86
2021/12/11 09:12:39;;;;;;;17.33;7.65;;;;;;;;;;4968277;28;20051;-85
2021/12/11 09:15:11;;;;;;;12.60;6.72;;;;;;;;;;5000846;28;20131;-86
2021/12/11 09:17:43;;;;;;;16.03;5.63;;;;;;;;;;4970946;28;20050;-86
2021/12/11 09:20:16;;;;;;;16.15;6.43;;;;;;;;;;4978450;28;20513;-86
2021/12/11 09:22:48;;;;;;;18.98;7.07;;;;;;;;;;4975668;28;20132;-86
2021/12/11 09:25:20;;;;;;;16.42;7.28;;;;;;;;;;4982532;28;20053;-86
2021/12/11 09:27:56;;;;;;;15.18;6.82;;;;;;;;;;4974865;28;20148;-86
2021/12/11 09:30:51;;;;;;;14.63;6.93;;;;;;;;;;4989032;28;20066;-86
2021/12/11 09:33:24;;;;;;;17.27;7.38;;;;;;;;;;4975897;28;20489;-86
2021/12/11 09:35:55;;;;;;;16.00;7.07;;;;;;;;;;4976796;28;20046;-85
2021/12/11 09:38:29;;;;;;;18.00;7.30;;;;;;;;;;4971513;28;20046;-84
2021/12/11 09:40:59;;;;;;;17.65;8.40;;;;;;;;;;4959504;28;20050;-86
2021/12/11 09:43:34;;;;;;;22.13;6.70;;;;;;;;;;4976624;28;20046;-87
2021/12/11 09:46:06;;;;;;;18.73;7.78;;;;;;;;;;4979980;28;20053;-86
2021/12/11 09:48:39;;;;;;;15.80;7.53;;;;;;;;;;4986898;28;20139;-85
2021/12/11 09:51:35;;;;;;;21.42;8.23;;;;;;;;;;4969329;28;20068;-86
2021/12/11 09:54:07;;;;;;;18.15;7.32;;;;;;;;;;4975214;28;20054;-86
2021/12/11 09:56:44;;;;;;;13.33;6.83;;;;;;;;;;4964410;28;20488;-86
2021/12/11 09:59:18;;;;;;;19.92;7.22;;;;;;;;;;4993609;28;20148;-86
2021/12/11 10:02:13;;;;;;;13.65;7.22;;;;;;;;;;4955296;28;20050;-84
2021/12/11 10:04:47;;;;;;;16.40;7.47;;;;;;;;;;4959240;28;20133;-86
2021/12/11 10:07:29;;;;;;;18.50;6.90;;;;;;;;;;4973308;28;20056;-86
2021/12/11 10:10:01;;;;;;;15.70;6.17;;;;;;;;;;4959454;28;20477;-87
2021/12/11 10:12:32;;;;;;;18.33;6.75;;;;;;;;;;4975687;28;20046;-86
2021/12/11 10:15:10;;;;;;;18.35;7.18;;;;;;;;;;4973824;28;20185;-87
2021/12/11 10:17:43;;;;;;;14.35;6.82;;;;;;;;;;4975615;28;20805;-87
2021/12/11 10:20:14;;;;;;;15.00;8.07;;;;;;;;;;4991253;28;20097;-86
2021/12/11 10:22:44;;;;;;;10.87;6.80;;;;;;;;;;4978670;28;20555;-87
2021/12/11 10:25:16;;;;;;;19.88;6.43;;;;;;;;;;4969186;28;20141;-87
2021/12/11 10:27:46;;;;;;;14.38;6.65;;;;;;;;;;4993350;28;20050;-85
2021/12/11 10:30:19;;;;;;;10.50;5.82;;;;;;;;;;4975002;28;20043;-86
2021/12/11 10:33:12;;;;;;;17.23;6.95;;;;;;;;;;4974841;28;20137;-86
2021/12/11 10:35:44;;;;;;;12.00;5.90;;;;;;;;;;4984844;28;20057;-86
2021/12/11 10:38:13;;;;;;;17.42;7.18;;;;;;;;;;4974288;28;20050;-86
2021/12/11 10:40:44;;;;;;;16.75;6.82;;;;;;;;;;4975431;28;20526;-86
2021/12/11 10:43:16;;;;;;;20.90;7.78;;;;;;;;;;4987069;28;20100;-85
2021/12/11 10:45:47;;;;;;;17.63;7.13;;;;;;;;;;5001610;28;20053;-86
2021/12/11 10:48:18;;;;;;;21.40;6.73;;;;;;;;;;4985078;28;20460;-85
2021/12/11 10:50:49;;;;;;;14.48;6.68;;;;;;;;;;4975662;28;20046;-86
2021/12/11 10:56:16;;;;;;;11.40;5.78;;;;;;;;;;4969442;28;20058;-85
2021/12/11 10:58:47;;;;;;;12.75;5.88;;;;;;;;;;4969573;28;20082;-85
2021/12/11 11:01:21;;;;;;;13.07;6.83;;;;;;;;;;4956747;28;20094;-85
2021/12/11 11:03:53;;;;;;;10.25;5.90;;;;;;;;;;4972731;28;20108;-86
2021/12/11 11:06:22;;;;;;;15.95;7.40;;;;;;;;;;4975050;28;20543;-86
2021/12/11 11:08:51;;;;;;;10.40;5.75;;;;;;;;;;4970728;28;20046;-85
2021/12/11 11:11:22;;;;;;;15.38;6.13;;;;;;;;;;4963667;28;21007;-85
2021/12/11 11:13:51;;;;;;;15.37;7.20;;;;;;;;;;4955447;28;20050;-85
2021/12/11 11:16:23;;;;;;;14.68;6.93;;;;;;;;;;4971283;28;20062;-85
2021/12/11 11:18:53;;;;;;;12.90;6.28;;;;;;;;;;4977354;28;20441;-84
2021/12/11 11:21:28;;;;;;;14.35;6.45;;;;;;;;;;4972329;28;20057;-85
2021/12/11 11:23:58;;;;;;;13.88;7.32;;;;;;;;;;4989905;28;20401;-85
2021/12/11 11:26:28;;;;;;;12.40;5.33;;;;;;;;;;4976722;28;20046;-86
2021/12/11 11:28:59;;;;;;;16.27;5.18;;;;;;;;;;4988346;28;20050;-87
2021/12/11 11:34:27;;;;;;;10.82;4.65;;;;;;;;;;5003347;28;20050;-86
2021/12/11 11:36:58;;;;;;;12.93;6.45;;;;;;;;;;4973768;28;20057;-86
2021/12/11 11:39:28;;;;;;;16.00;6.93;;;;;;;;;;4994044;28;20116;-87
2021/12/11 11:41:59;;;;;;;12.30;5.20;;;;;;;;;;4973848;28;20081;-86
2021/12/11 11:44:31;;;;;;;12.15;5.72;;;;;;;;;;4974041;28;20064;-85
2021/12/11 11:50:23;;;;;;;13.43;6.00;;;;;;;;;;4963394;28;20190;-85
2021/12/11 11:52:55;;;;;;;11.43;5.43;;;;;;;;;;4976798;28;20050;-85
2021/12/11 11:55:29;;;;;;;12.05;5.05;;;;;;;;;;4976760;28;20055;-86
2021/12/11 11:57:59;;;;;;;13.10;6.13;;;;;;;;;;4977183;28;20404;-86
2021/12/11 12:00:30;;;;;;;12.48;6.25;;;;;;;;;;4987891;28;20509;-87
2021/12/11 12:03:01;;;;;;;11.85;5.30;;;;;;;;;;4960674;28;20050;-87
2021/12/11 12:05:35;;;;;;;14.73;6.30;;;;;;;;;;5002362;28;20057;-87
2021/12/11 12:08:13;;;;;;;13.25;6.97;;;;;;;;;;4972164;28;20053;-86
2021/12/11 12:10:45;;;;;;;15.77;6.72;;;;;;;;;;4985985;28;20050;-85
2021/12/11 12:13:19;;;;;;;15.27;5.47;;;;;;;;;;4958079;28;20053;-86
2021/12/11 12:15:53;;;;;;;20.95;6.70;;;;;;;;;;4972196;28;20058;-84
2021/12/11 12:18:27;;;;;;;13.60;5.30;;;;;;;;;;4964018;28;20062;-85
2021/12/11 12:20:58;;;;;;;18.00;5.72;;;;;;;;;;4976804;28;20553;-84
2021/12/11 12:23:31;;;;;;;17.90;6.15;;;;;;;;;;4974883;28;20077;-85
2021/12/11 12:26:02;;;;;;;15.68;6.38;;;;;;;;;;4980023;28;20880;-83
2021/12/11 12:28:45;;;;;;;11.55;5.38;;;;;;;;;;4986309;28;20130;-83
2021/12/11 12:31:57;;;;;;;9.20;5.67;;;;;;;;;;4970662;28;20162;-84
2021/12/11 12:34:28;;;;;;;14.73;6.55;;;;;;;;;;4982934;28;20389;-85
2021/12/11 12:37:01;;;;;;;14.43;6.22;;;;;;;;;;4953541;28;20050;-85
2021/12/11 12:39:37;;;;;;;21.50;7.07;;;;;;;;;;4971241;28;20409;-85
2021/12/11 12:42:17;;;;;;;14.88;6.68;;;;;;;;;;4958517;28;20050;-86
2021/12/11 12:44:49;;;;;;;12.17;4.97;;;;;;;;;;4958905;28;20057;-85
2021/12/11 12:47:20;;;;;;;15.55;5.53;;;;;;;;;;4973390;28;20065;-84
2021/12/11 12:50:19;;;;;;;15.77;6.15;;;;;;;;;;4977945;28;20792;-85
2021/12/11 12:52:49;;;;;;;10.63;5.88;;;;;;;;;;4966466;28;20137;-86
2021/12/11 12:55:23;;;;;;;19.52;6.05;;;;;;;;;;4974096;28;20038;-86
2021/12/11 12:57:54;;;;;;;12.00;5.77;;;;;;;;;;4980371;28;20346;-86
2021/12/11 13:00:25;;;;;;;13.90;5.78;;;;;;;;;;4975996;28;20063;-85
2021/12/11 13:03:09;;;;;;;12.48;4.95;;;;;;;;;;4975345;28;20047;-86
2021/12/11 13:05:42;;;;;;;10.95;5.88;;;;;;;;;;4975235;28;20519;-86
2021/12/11 13:08:15;;;;;;;14.10;7.22;;;;;;;;;;4982985;28;20101;-85
2021/12/11 13:10:46;;;;;;;10.43;5.63;;;;;;;;;;4978482;28;20389;-86
2021/12/11 13:13:27;;;;;;;13.25;5.72;;;;;;;;;;4972551;28;20113;-85
2021/12/11 13:15:59;;;;;;;13.25;5.75;;;;;;;;;;4976927;28;20489;-86
2021/12/11 13:18:36;;;;;;;10.63;5.03;;;;;;;;;;4961619;28;20062;-85
2021/12/11 13:24:15;;;;;;;15.77;5.73;;;;;;;;;;4974054;28;20094;-84
2021/12/11 13:26:48;;;;;;;9.13;5.00;;;;;;;;;;4959423;28;20046;-84
2021/12/11 13:29:19;;;;;;;13.30;6.55;;;;;;;;;;4981778;28;20114;-81
2021/12/11 13:31:59;;;;;;;16.23;4.65;;;;;;;;;;4964280;28;20046;-84
2021/12/11 13:34:31;;;;;;;19.02;6.65;;;;;;;;;;4961121;28;20055;-85
2021/12/11 13:37:03;;;;;;;8.20;4.33;;;;;;;;;;4943623;28;20054;-84
2021/12/11 13:39:32;;;;;;;12.25;5.35;;;;;;;;;;4955495;28;20055;-85
2021/12/11 13:42:28;;;;;;;13.18;5.82;;;;;;;;;;4962684;28;20058;-85
2021/12/11 13:44:59;;;;;;;15.60;6.13;;;;;;;;;;4961656;28;20472;-84
2021/12/11 13:47:31;;;;;;;15.55;6.03;;;;;;;;;;4963844;28;20050;-85
2021/12/11 13:50:05;;;;;;;14.50;6.13;;;;;;;;;;4966509;28;20482;-85
2021/12/11 13:52:36;;;;;;;15.35;7.03;;;;;;;;;;4952783;28;20117;-85
2021/12/11 13:55:11;;;;;;;16.80;7.00;;;;;;;;;;4972896;28;20453;-84
2021/12/11 13:58:02;;;;;;;10.07;5.18;;;;;;;;;;4952529;28;20054;-85
2021/12/11 14:00:33;;;;;;;12.55;5.50;;;;;;;;;;4959751;28;20050;-85
2021/12/11 14:03:12;;;;;;;10.53;5.43;;;;;;;;;;4955787;28;20564;-85
2021/12/11 14:05:47;;;;;;;12.43;5.65;;;;;;;;;;4956536;28;20059;-84
2021/12/11 14:08:21;;;;;;;15.27;5.95;;;;;;;;;;4972399;28;20129;-84
2021/12/11 14:10:51;;;;;;;17.70;6.90;;;;;;;;;;4956070;28;20501;-84
2021/12/11 14:13:20;;;;;;;12.48;5.93;;;;;;;;;;4952915;28;20043;-85
2021/12/11 14:15:51;;;;;;;11.97;5.87;;;;;;;;;;4949491;28;20047;-85
2021/12/11 14:18:22;;;;;;;9.48;5.10;;;;;;;;;;4953038;28;20138;-84
2021/12/11 14:20:54;;;;;;;17.77;5.38;;;;;;;;;;4972125;28;20502;-85
2021/12/11 14:23:41;;;;;;;13.63;5.95;;;;;;;;;;4964360;28;20129;-84
2021/12/11 14:26:12;;;;;;;11.43;5.22;;;;;;;;;;4961740;28;20058;-87
2021/12/11 14:28:42;;;;;;;15.03;5.60;;;;;;;;;;4992384;28;20129;-86
2021/12/11 14:31:15;;;;;;;11.82;5.47;;;;;;;;;;4987197;28;20085;-87
2021/12/11 14:33:45;;;;;;;10.55;4.63;;;;;;;;;;4969437;28;20108;-87
2021/12/11 14:36:17;;;;;;;14.80;6.45;;;;;;;;;;4982987;28;20080;-87
2021/12/11 14:38:50;;;;;;;12.88;5.60;;;;;;;;;;4982492;28;20461;-86
2021/12/11 14:41:31;;;;;;;13.90;6.37;;;;;;;;;;4976958;28;20054;-86
2021/12/11 14:44:04;;;;;;;15.27;5.65;;;;;;;;;;5001838;28;20061;-85
2021/12/11 14:46:34;;;;;;;12.02;4.90;;;;;;;;;;4986410;28;20055;-86
2021/12/11 14:49:05;;;;;;;17.38;6.75;;;;;;;;;;4974296;28;20050;-86
2021/12/11 14:51:35;;;;;;;11.05;5.47;;;;;;;;;;4972833;28;20051;-87
2021/12/11 14:54:09;;;;;;;13.10;4.57;;;;;;;;;;4977180;28;20077;-86
2021/12/11 14:56:41;;;;;;;9.65;5.15;;;;;;;;;;4965375;28;20057;-86
2021/12/11 14:59:11;;;;;;;16.90;6.38;;;;;;;;;;4986673;28;20133;-85
2021/12/11 15:02:05;;;;;;;9.18;4.78;;;;;;;;;;4975599;28;20109;-87
2021/12/11 15:04:37;;;;;;;17.30;5.25;;;;;;;;;;4981523;28;20050;-85
2021/12/11 15:07:08;;;;;;;12.63;5.57;;;;;;;;;;4979245;28;20065;-87
2021/12/11 15:09:39;;;;;;;17.95;6.55;;;;;;;;;;4990423;28;20046;-86
2021/12/11 15:12:09;;;;;;;13.57;6.38;;;;;;;;;;4975342;28;20042;-86
2021/12/11 15:14:39;;;;;;;11.57;5.22;;;;;;;;;;4975192;28;20065;-86
2021/12/11 15:17:11;;;;;;;16.02;5.47;;;;;;;;;;4981802;28;20081;-86
2021/12/11 15:19:51;;;;;;;15.70;6.17;;;;;;;;;;4982135;28;20061;-87
2021/12/11 15:22:21;;;;;;;9.73;4.95;;;;;;;;;;4959224;28;20139;-85
2021/12/11 15:24:53;;;;;;;12.13;5.30;;;;;;;;;;4975416;28;20489;-85
2021/12/11 15:27:27;;;;;;;7.22;4.10;;;;;;;;;;4975098;28;20076;-86
2021/12/11 15:29:57;;;;;;;10.52;5.60;;;;;;;;;;4981011;28;20498;-87
2021/12/11 15:32:27;;;;;;;14.27;5.77;;;;;;;;;;4974594;28;20463;-86
2021/12/11 15:35:00;;;;;;;10.77;4.97;;;;;;;;;;4974582;28;20046;-86
2021/12/11 15:37:29;;;;;;;13.48;5.47;;;;;;;;;;4996446;28;20045;-86
2021/12/11 15:40:00;;;;;;;13.45;6.45;;;;;;;;;;4980887;28;20054;-86
2021/12/11 15:42:29;;;;;;;12.88;5.85;;;;;;;;;;4975746;28;20051;-87
2021/12/11 15:45:00;;;;;;;10.60;5.30;;;;;;;;;;4981370;28;20129;-86
2021/12/11 15:47:31;;;;;;;11.05;5.22;;;;;;;;;;4972279;28;20168;-86
2021/12/11 15:50:02;;;;;;;11.30;5.40;;;;;;;;;;4974684;28;20082;-87
2021/12/11 15:52:35;;;;;;;12.35;5.85;;;;;;;;;;4976094;28;20436;-87
2021/12/11 15:55:14;;;;;;;10.98;5.07;;;;;;;;;;4988858;28;20053;-86
2021/12/11 15:57:44;;;;;;;7.90;4.40;;;;;;;;;;5004837;28;20066;-86
2021/12/11 16:00:15;;;;;;;9.75;4.03;;;;;;;;;;4975312;28;20050;-86
2021/12/11 16:05:40;;;;;;;14.07;4.10;;;;;;;;;;4968042;28;20165;-85
2021/12/11 16:08:14;;;;;;;9.48;4.43;;;;;;;;;;4980928;28;20484;-86
2021/12/11 16:10:46;;;;;;;10.43;5.13;;;;;;;;;;4959216;28;20050;-86
2021/12/11 16:13:15;;;;;;;8.95;4.32;;;;;;;;;;4978784;28;20038;-86
2021/12/11 16:18:40;;;;;;;7.97;3.85;;;;;;;;;;4958070;28;20054;-86
2021/12/11 16:21:39;;;;;;;8.77;4.43;;;;;;;;;;4989287;28;20053;-86
2021/12/11 16:24:10;;;;;;;9.80;4.37;;;;;;;;;;4973704;28;20088;-86
2021/12/11 16:26:41;;;;;;;8.95;4.40;;;;;;;;;;4969367;28;20058;-86
2021/12/11 16:29:10;;;;;;;9.15;5.43;;;;;;;;;;4987359;28;20156;-86